Time;durP1;ratioP1;P1;durP2;ratioP2;P2;SDS_P1;SDS_P2;PMS_P1;PMS_P2;Temp;Humidity;BMP_temperature;BMP_pressure;BME280_temperature;BME280_humidity;BME280_pressure;Samples;Min_cycle;Max_cycle;Signal;HPM_P1;HPM_P2
2022/08/02 00:00:45;;;;;;;;;;;;;;;19.31;100.00;98918.23;1673462;86;20169;-75
2022/08/02 00:03:10;;;;;;;;;;;;;;;19.31;100.00;98920.21;1671723;86;20155;-75
2022/08/02 00:05:47;;;;;;;;;;;;;;;19.29;100.00;98921.99;1669952;86;21181;-75
2022/08/02 00:08:14;;;;;;;;;;;;;;;19.28;100.00;98919.59;1672943;85;20100;-75
2022/08/02 00:10:40;;;;;;;;;;;;;;;19.27;100.00;98919.39;1654317;86;20092;-75
2022/08/02 00:13:11;;;;;;;;;;;;;;;19.25;100.00;98916.20;1673332;86;20655;-75
2022/08/02 00:15:40;;;;;;;;;;;;;;;19.24;100.00;98921.56;1669372;85;20104;-75
2022/08/02 00:18:09;;;;;;;;;;;;;;;19.20;100.00;98922.93;1673418;86;21256;-75
2022/08/02 00:20:35;;;;;;;;;;;;;;;19.17;100.00;98927.88;1673307;86;20120;-75
2022/08/02 00:23:05;;;;;;;;;;;;;;;19.14;100.00;98916.94;1653203;86;20092;-75
2022/08/02 00:25:35;;;;;;;;;;;;;;;19.11;100.00;98914.92;1672676;85;20121;-75
2022/08/02 00:28:04;;;;;;;;;;;;;;;19.07;100.00;98918.28;1672907;85;20456;-76
2022/08/02 00:30:31;;;;;;;;;;;;;;;19.05;100.00;98923.46;1673555;86;21110;-75
2022/08/02 00:33:12;;;;;;;;;;;;;;;19.04;100.00;98923.84;1673215;86;20100;-75
2022/08/02 00:35:31;;;;;;;;;;;;;;;19.04;100.00;98923.84;1669616;85;20124;-75
2022/08/02 00:38:02;;;;;;;;;;;;;;;19.06;100.00;98922.87;1669512;85;20128;-75
2022/08/02 00:40:32;;;;;;;;;;;;;;;19.08;100.00;98931.00;1672768;85;20113;-75
2022/08/02 00:43:18;;;;;;;;;;;;;;;19.09;100.00;98933.19;1654142;85;20428;-75
2022/08/02 00:45:45;;;;;;;;;;;;;;;19.06;100.00;98936.16;1672739;85;20088;-75
2022/08/02 00:48:18;;;;;;;;;;;;;;;19.03;100.00;98927.22;1672915;86;20100;-75
2022/08/02 00:50:43;;;;;;;;;;;;;;;19.00;100.00;98923.82;1672939;85;20124;-75
2022/08/02 00:53:13;;;;;;;;;;;;;;;19.00;100.00;98925.80;1672593;85;20120;-75
2022/08/02 00:55:42;;;;;;;;;;;;;;;18.99;100.00;98926.39;1669879;85;21286;-75
2022/08/02 00:58:10;;;;;;;;;;;;;;;18.97;100.00;98925.98;1672589;85;20262;-75
2022/08/02 01:00:39;;;;;;;;;;;;;;;18.93;100.00;98920.19;1673363;85;20127;-75
2022/08/02 01:03:09;;;;;;;;;;;;;;;18.88;100.00;98921.34;1652076;86;20125;-75
2022/08/02 01:05:49;;;;;;;;;;;;;;;18.86;100.00;98919.55;1671963;85;20088;-75
2022/08/02 01:08:08;;;;;;;;;;;;;;;18.84;100.00;98921.11;1671359;85;21062;-75
2022/08/02 01:10:41;;;;;;;;;;;;;;;18.80;100.00;98917.72;1672712;85;20510;-75
2022/08/02 01:13:12;;;;;;;;;;;;;;;18.80;100.00;98923.87;1673346;86;20160;-75
2022/08/02 01:15:44;;;;;;;;;;;;;;;18.80;100.00;98925.26;1672761;85;20092;-75
2022/08/02 01:18:20;;;;;;;;;;;;;;;18.80;100.00;98924.67;1673338;85;20092;-75
2022/08/02 01:21:15;;;;;;;;;;;;;;;18.84;100.00;98930.84;1673400;85;22172;-75
2022/08/02 01:23:57;;;;;;;;;;;;;;;18.84;100.00;98923.30;1672439;85;20452;-75
2022/08/02 01:26:45;;;;;;;;;;;;;;;18.83;100.00;98924.48;1673484;85;20100;-75
2022/08/02 01:29:30;;;;;;;;;;;;;;;18.83;100.00;98929.25;1673386;85;20661;-75
2022/08/02 01:31:59;;;;;;;;;;;;;;;18.84;100.00;98929.45;1647274;85;20112;-75
2022/08/02 01:34:35;;;;;;;;;;;;;;;18.85;100.00;98920.73;1673275;86;21842;-75
2022/08/02 01:37:14;;;;;;;;;;;;;;;18.84;100.00;98921.91;1673613;85;20439;-75
2022/08/02 01:39:46;;;;;;;;;;;;;;;18.83;100.00;98920.31;1673312;86;20092;-75
2022/08/02 01:42:13;;;;;;;;;;;;;;;18.81;100.00;98918.52;1672976;85;20614;-75
2022/08/02 01:44:44;;;;;;;;;;;;;;;18.81;100.00;98914.34;1652849;86;20124;-75
2022/08/02 01:47:21;;;;;;;;;;;;;;;18.83;100.00;98911.17;1672528;85;21902;-75
2022/08/02 01:49:52;;;;;;;;;;;;;;;18.85;100.00;98912.98;1673248;86;20128;-75
2022/08/02 01:52:39;;;;;;;;;;;;;;;18.85;100.00;98910.20;1664087;85;32845;-75
2022/08/02 01:55:11;;;;;;;;;;;;;;;18.84;100.00;98898.87;1673136;86;20121;-75
2022/08/02 01:57:45;;;;;;;;;;;;;;;18.83;100.00;98909.19;1672838;85;20121;-75
2022/08/02 02:00:15;;;;;;;;;;;;;;;18.82;100.00;98910.37;1648314;86;21713;-75
2022/08/02 02:02:49;;;;;;;;;;;;;;;18.85;100.00;98912.39;1652395;86;20104;-75
2022/08/02 02:05:21;;;;;;;;;;;;;;;18.87;100.00;98916.97;1653527;86;20167;-75
2022/08/02 02:07:53;;;;;;;;;;;;;;;18.87;100.00;98915.58;1673254;85;20121;-75
2022/08/02 02:10:25;;;;;;;;;;;;;;;18.88;100.00;98910.81;1669445;85;20141;-75
2022/08/02 02:13:01;;;;;;;;;;;;;;;18.88;100.00;98909.42;1653576;85;20101;-75
2022/08/02 02:15:32;;;;;;;;;;;;;;;18.89;100.00;98908.24;1672406;85;20100;-75
2022/08/02 02:17:56;;;;;;;;;;;;;;;18.90;100.00;98905.08;1672515;85;20120;-75
2022/08/02 02:20:27;;;;;;;;;;;;;;;18.91;100.00;98898.92;1673325;86;20120;-75
2022/08/02 02:22:53;;;;;;;;;;;;;;;18.90;100.00;98897.33;1672874;85;20088;-75
2022/08/02 02:25:26;;;;;;;;;;;;;;;18.90;100.00;98892.56;1673570;86;21097;-75
2022/08/02 02:28:04;;;;;;;;;;;;;;;18.90;100.00;98889.78;1669371;85;20096;-75
2022/08/02 02:30:31;;;;;;;;;;;;;;;18.88;100.00;98886.59;1673514;86;20137;-75
2022/08/02 02:33:01;;;;;;;;;;;;;;;18.88;100.00;98887.18;1652093;86;20136;-75
2022/08/02 02:35:32;;;;;;;;;;;;;;;18.86;100.00;98886.77;1647250;86;20100;-75
2022/08/02 02:38:04;;;;;;;;;;;;;;;18.85;100.00;98889.34;1673413;86;21264;-75
2022/08/02 02:40:40;;;;;;;;;;;;;;;18.84;100.00;98888.55;1672919;85;20080;-75
2022/08/02 02:43:06;;;;;;;;;;;;;;;18.84;100.00;98887.16;1632979;86;20088;-75
2022/08/02 02:45:33;;;;;;;;;;;;;;;18.86;100.00;98886.77;1654780;85;20133;-75
2022/08/02 02:47:59;;;;;;;;;;;;;;;18.84;100.00;98885.77;1654399;86;20428;-75
2022/08/02 02:50:28;;;;;;;;;;;;;;;18.85;100.00;98883.19;1673371;86;21152;-75
2022/08/02 02:52:54;;;;;;;;;;;;;;;18.87;100.00;98884.99;1673252;85;20076;-75
2022/08/02 02:55:25;;;;;;;;;;;;;;;18.87;100.00;98880.02;1673444;86;20456;-75
2022/08/02 02:57:54;;;;;;;;;;;;;;;18.86;100.00;98886.77;1668942;85;20722;-75
2022/08/02 03:03:14;;;;;;;;;;;;;;;18.86;100.00;98886.17;1672661;85;21735;-75
2022/08/02 03:05:47;;;;;;;;;;;;;;;18.86;100.00;98897.89;1673049;85;20443;-75
2022/08/02 03:08:26;;;;;;;;;;;;;;;18.86;100.00;98892.33;1654526;86;20104;-75
2022/08/02 03:10:52;;;;;;;;;;;;;;;18.84;100.00;98881.59;1653979;85;20124;-75
2022/08/02 03:13:27;;;;;;;;;;;;;;;18.84;100.00;98888.55;1673364;86;20089;-75
2022/08/02 03:15:52;;;;;;;;;;;;;;;18.85;100.00;98887.36;1622708;86;21558;-75
2022/08/02 03:18:39;;;;;;;;;;;;;;;18.87;100.00;98886.97;1637776;87;20100;-75
2022/08/02 03:21:11;;;;;;;;;;;;;;;18.86;100.00;98888.95;1653047;86;20077;-74
2022/08/02 03:23:41;;;;;;;;;;;;;;;18.87;100.00;98885.59;1628225;87;20108;-74
2022/08/02 03:26:09;;;;;;;;;;;;;;;18.84;100.00;98889.94;1638423;87;20184;-75
2022/08/02 03:28:36;;;;;;;;;;;;;;;18.89;100.00;98888.77;1646730;86;21131;-75
2022/08/02 03:31:13;;;;;;;;;;;;;;;18.98;100.00;98887.84;1637975;87;20125;-75
2022/08/02 03:33:40;;;;;;;;;;;;;;;19.06;100.00;98891.64;1663585;86;20428;-75
2022/08/02 03:36:14;;;;;;;;;;;;;;;19.06;100.00;98892.27;1637789;86;20424;-75
2022/08/02 03:38:43;;;;;;;;;;;;;;;19.09;100.00;98899.22;1664789;86;20089;-75
2022/08/02 03:41:14;;;;;;;;;;;;;;;19.10;100.00;98895.84;1646942;86;21167;-75
2022/08/02 03:43:45;;;;;;;;;;;;;;;19.09;100.00;98903.39;1688706;84;20116;-74
2022/08/02 03:46:12;;;;;;;;;;;;;;;19.09;100.00;98899.81;1705653;84;20185;-74
2022/08/02 03:48:43;;;;;;;;;;;;;;;19.07;100.00;98903.57;1706109;84;20197;-75
2022/08/02 03:51:12;;;;;;;;;;;;;;;19.05;100.00;98901.80;1705934;84;20090;-79
2022/08/02 03:53:40;;;;;;;;;;;;;;;19.04;100.00;98901.00;1686402;84;20113;-73
2022/08/02 03:56:09;;;;;;;;;;;;;;;19.00;100.00;98891.83;1703271;84;20114;-74
2022/08/02 03:58:36;;;;;;;;;;;;;;;19.00;100.00;98893.22;1671354;85;20096;-75
2022/08/02 04:01:08;;;;;;;;;;;;;;;19.07;100.00;98886.88;1677854;85;20148;-73
2022/08/02 04:03:36;;;;;;;;;;;;;;;19.21;100.00;98884.77;1659504;85;20199;-75
2022/08/02 04:06:05;;;;;;;;;;;;;;;19.24;100.00;98885.39;1677902;85;21165;-74
2022/08/02 04:08:38;;;;;;;;;;;;;;;19.21;100.00;98885.57;1676801;85;20088;-73
2022/08/02 04:13:55;;;;;;;;;;;;;;;19.24;100.00;98888.97;1658456;85;20120;-75
2022/08/02 04:16:36;;;;;;;;;;;;;;;19.30;100.00;98891.59;1677359;85;20088;-74
2022/08/02 04:19:03;;;;;;;;;;;;;;;19.33;100.00;98892.80;1648656;85;20088;-74
2022/08/02 04:21:35;;;;;;;;;;;;;;;19.30;100.00;98893.57;1674933;85;20427;-74
2022/08/02 04:24:09;;;;;;;;;;;;;;;19.29;100.00;98891.38;1669815;85;20448;-74
2022/08/02 04:26:40;;;;;;;;;;;;;;;19.29;100.00;98896.95;1668693;86;20151;-74
2022/08/02 04:29:10;;;;;;;;;;;;;;;19.27;100.00;98895.15;1667306;86;20101;-74
2022/08/02 04:31:45;;;;;;;;;;;;;;;19.27;100.00;98894.34;1642250;86;20105;-75
2022/08/02 04:34:11;;;;;;;;;;;;;;;19.31;100.00;98893.18;1684577;84;20216;-74
2022/08/02 04:36:46;;;;;;;;;;;;;;;19.35;100.00;98893.20;1674895;84;20126;-74
2022/08/02 04:39:12;;;;;;;;;;;;;;;19.40;100.00;98897.00;1696382;84;20102;-73
2022/08/02 04:41:51;;;;;;;;;;;;;;;19.45;100.00;98897.43;1696966;84;20090;-74
2022/08/02 04:44:22;;;;;;;;;;;;;;;19.46;100.00;98900.42;1676424;84;20095;-74
2022/08/02 04:46:45;;;;;;;;;;;;;;;19.47;100.00;98899.83;1696437;84;20118;-74
2022/08/02 04:49:14;;;;;;;;;;;;;;;19.48;100.00;98902.02;1677434;84;20090;-74
2022/08/02 04:51:45;;;;;;;;;;;;;;;19.45;100.00;98904.39;1696038;84;20159;-74
2022/08/02 04:54:12;;;;;;;;;;;;;;;19.40;100.00;98898.40;1697004;84;20122;-74
2022/08/02 04:56:46;;;;;;;;;;;;;;;19.35;100.00;98902.94;1696665;84;21143;-75
2022/08/02 04:59:15;;;;;;;;;;;;;;;19.32;100.00;98911.48;1696138;83;20086;-75
2022/08/02 05:01:46;;;;;;;;;;;;;;;19.30;100.00;98908.88;1670582;84;20102;-75
2022/08/02 05:04:15;;;;;;;;;;;;;;;19.30;100.00;98909.67;1696053;84;20125;-75
2022/08/02 05:06:42;;;;;;;;;;;;;;;19.28;100.00;98909.27;1696753;83;20102;-75
2022/08/02 05:09:11;;;;;;;;;;;;;;;19.26;100.00;98908.05;1696675;84;21103;-75
2022/08/02 05:11:43;;;;;;;;;;;;;;;19.28;100.00;98912.64;1687662;84;20074;-75
2022/08/02 05:14:14;;;;;;;;;;;;;;;19.30;100.00;98911.06;1673114;84;20200;-74
2022/08/02 05:16:45;;;;;;;;;;;;;;;19.29;100.00;98913.64;1677427;84;20101;-75
2022/08/02 05:19:16;;;;;;;;;;;;;;;19.30;100.00;98908.28;1672550;86;20466;-75
2022/08/02 05:21:43;;;;;;;;;;;;;;;19.34;100.00;98913.87;1672148;85;21780;-75
2022/08/02 05:24:16;;;;;;;;;;;;;;;19.34;100.00;98911.09;1673302;86;20116;-75
2022/08/02 05:26:45;;;;;;;;;;;;;;;19.37;100.00;98922.83;1673217;85;20423;-75
2022/08/02 05:29:12;;;;;;;;;;;;;;;19.40;100.00;98917.28;1673300;86;20620;-75
2022/08/02 05:31:40;;;;;;;;;;;;;;;19.39;100.00;98920.45;1650828;86;20499;-75
2022/08/02 05:34:11;;;;;;;;;;;;;;;19.36;100.00;98911.50;1672139;86;21782;-75
2022/08/02 05:36:41;;;;;;;;;;;;;;;19.33;100.00;98921.42;1672143;85;20089;-75
2022/08/02 05:39:08;;;;;;;;;;;;;;;19.28;100.00;98915.42;1673574;85;20100;-74
2022/08/02 05:41:35;;;;;;;;;;;;;;;19.26;100.00;98919.19;1673283;86;20104;-74
2022/08/02 05:44:04;;;;;;;;;;;;;;;19.27;100.00;98922.17;1672404;86;20120;-74
2022/08/02 05:46:31;;;;;;;;;;;;;;;19.28;100.00;98916.81;1673249;86;21559;-75
2022/08/02 05:49:03;;;;;;;;;;;;;;;19.27;100.00;98920.19;1652076;86;20092;-74
2022/08/02 05:51:39;;;;;;;;;;;;;;;19.25;100.00;98925.94;1671642;85;20148;-74
2022/08/02 05:54:36;;;;;;;;;;;;;;;19.24;100.00;98936.86;1671505;85;20100;-74
2022/08/02 05:57:12;;;;;;;;;;;;;;;19.25;100.00;98937.06;1672102;86;20456;-75
2022/08/02 05:59:44;;;;;;;;;;;;;;;19.26;100.00;98949.80;1671999;86;21223;-75
2022/08/02 06:02:17;;;;;;;;;;;;;;;19.25;100.00;98952.38;1673091;85;20105;-74
2022/08/02 06:04:57;;;;;;;;;;;;;;;19.23;100.00;98946.40;1672847;85;20435;-74
2022/08/02 06:07:23;;;;;;;;;;;;;;;19.23;100.00;98946.40;1649322;86;20452;-74
2022/08/02 06:09:54;;;;;;;;;;;;;;;19.18;100.00;98960.08;1654006;86;20498;-75
2022/08/02 06:12:28;;;;;;;;;;;;;;;19.16;100.00;98961.66;1652207;86;20144;-74
2022/08/02 06:15:02;;;;;;;;;;;;;;;19.10;100.00;98964.00;1673355;86;20117;-74
2022/08/02 06:17:27;;;;;;;;;;;;;;;19.08;100.00;98964.97;1653060;85;20136;-74
2022/08/02 06:19:58;;;;;;;;;;;;;;;19.06;100.00;98968.77;1673199;86;20103;-74
2022/08/02 06:22:27;;;;;;;;;;;;;;;19.01;100.00;98977.47;1672269;86;20439;-74
2022/08/02 06:24:57;;;;;;;;;;;;;;;18.99;100.00;98980.63;1671862;86;21793;-74
2022/08/02 06:27:28;;;;;;;;;;;;;;;18.95;100.00;98988.16;1672206;85;20120;-74
2022/08/02 06:30:01;;;;;;;;;;;;;;;18.91;100.00;98983.15;1673370;86;20096;-74
2022/08/02 06:32:32;;;;;;;;;;;;;;;18.87;100.00;98983.72;1672847;86;20144;-74
2022/08/02 06:34:57;;;;;;;;;;;;;;;18.85;100.00;98987.47;1672333;86;20225;-74
2022/08/02 06:37:44;;;;;;;;;;;;;;;18.87;100.00;98989.87;1667678;85;21196;-74
2022/08/02 06:40:22;;;;;;;;;;;;;;;18.84;100.00;98977.53;1665082;86;20097;-74
2022/08/02 06:43:07;;;;;;;;;;;;;;;18.80;100.00;98986.43;1595055;86;20157;-74
2022/08/02 06:45:23;;;;;;;;;;;;;;;18.80;100.00;98979.48;1671249;86;20117;-74
2022/08/02 06:47:52;;;;;;;;;;;;;;;18.84;100.00;98973.95;1672696;85;20140;-74
2022/08/02 06:50:19;;;;;;;;;;;;;;;18.87;100.00;98976.76;1673219;86;21281;-74
2022/08/02 06:52:51;;;;;;;;;;;;;;;18.92;100.00;98977.00;1652105;86;20155;-74
2022/08/02 06:55:22;;;;;;;;;;;;;;;18.94;100.00;98968.47;1651951;86;20156;-74
2022/08/02 06:57:56;;;;;;;;;;;;;;;18.98;100.00;98968.50;1652063;86;20456;-74
2022/08/02 07:00:25;;;;;;;;;;;;;;;19.01;100.00;98961.58;1672420;86;20132;-74
2022/08/02 07:02:52;;;;;;;;;;;;;;;19.05;100.00;98967.17;1652518;86;20140;-74
2022/08/02 07:05:23;;;;;;;;;;;;;;;19.07;100.00;98963.38;1652099;86;20104;-74
2022/08/02 07:07:55;;;;;;;;;;;;;;;19.13;100.00;98968.20;1672142;86;20117;-74
2022/08/02 07:10:23;;;;;;;;;;;;;;;19.21;100.00;98969.05;1673385;85;20124;-74
2022/08/02 07:12:50;;;;;;;;;;;;;;;19.26;100.00;98966.48;1672575;85;20209;-74
2022/08/02 07:15:17;;;;;;;;;;;;;;;19.28;100.00;98966.91;1673378;86;21954;-74
2022/08/02 07:17:49;;;;;;;;;;;;;;;19.33;100.00;98963.76;1673346;86;20420;-74
2022/08/02 07:20:19;;;;;;;;;;;;;;;19.40;100.00;98966.58;1653435;86;20104;-74
2022/08/02 07:22:54;;;;;;;;;;;;;;;19.49;100.00;98969.02;1672548;86;20088;-75
2022/08/02 07:25:22;;;;;;;;;;;;;;;19.55;100.00;98965.52;1653976;86;20136;-75
2022/08/02 07:27:56;;;;;;;;;;;;;;;19.64;100.00;98961.75;1672860;85;21823;-74
2022/08/02 07:30:21;;;;;;;;;;;;;;;19.70;100.00;98969.94;1672271;86;20076;-74
2022/08/02 07:32:52;;;;;;;;;;;;;;;19.77;100.00;98964.41;1672833;86;20096;-74
2022/08/02 07:35:17;;;;;;;;;;;;;;;19.86;100.00;98967.42;1672449;85;20100;-74
2022/08/02 07:37:56;;;;;;;;;;;;;;;19.92;100.00;98965.86;1672827;85;20080;-74
2022/08/02 07:40:23;;;;;;;;;;;;;;;19.96;100.00;98967.47;1673361;86;21174;-74
2022/08/02 07:43:17;;;;;;;;;;;;;;;20.03;100.00;98966.70;1677398;84;20088;-72
2022/08/02 07:45:50;;;;;;;;;;;;;;;20.05;100.00;98969.29;1689206;84;20120;-74
2022/08/02 07:48:20;;;;;;;;;;;;;;;20.09;100.00;98966.52;1665363;86;20112;-74
2022/08/02 07:50:47;;;;;;;;;;;;;;;20.06;100.00;98967.30;1673625;85;20491;-74
2022/08/02 07:53:18;;;;;;;;;;;;;;;20.03;100.00;98975.85;1652453;86;20092;-75
2022/08/02 07:55:51;;;;;;;;;;;;;;;20.06;100.00;98965.91;1672107;86;20427;-76
2022/08/02 07:58:22;;;;;;;;;;;;;;;20.08;100.00;98973.28;1673354;85;20451;-75
2022/08/02 08:00:50;;;;;;;;;;;;;;;20.08;100.00;98972.69;1673406;85;20561;-74
2022/08/02 08:03:16;;;;;;;;;;;;;;;20.08;100.00;98973.28;1673587;85;20124;-75
2022/08/02 08:05:49;;;;;;;;;;;;;;;20.10;100.00;98974.48;1673317;86;21750;-77
2022/08/02 08:08:17;;;;;;;;;;;;;;;20.09;100.00;98972.89;1673259;86;20104;-73
2022/08/02 08:10:48;;;;;;;;;;;;;;;20.09;100.00;98973.48;1673463;85;20112;-74
2022/08/02 08:13:20;;;;;;;;;;;;;;;20.13;100.00;98975.69;1674989;84;20135;-73
2022/08/02 08:15:49;;;;;;;;;;;;;;;20.20;100.00;98981.88;1686373;84;20097;-73
2022/08/02 08:18:29;;;;;;;;;;;;;;;20.21;100.00;98984.87;1652273;86;20598;-74
2022/08/02 08:20:52;;;;;;;;;;;;;;;20.23;100.00;98986.04;1672220;85;20435;-74
2022/08/02 08:23:21;;;;;;;;;;;;;;;20.27;100.00;98995.20;1673499;86;20152;-88
2022/08/02 08:25:49;;;;;;;;;;;;;;;20.35;100.00;98996.83;1673283;85;20092;-73
2022/08/02 08:28:17;;;;;;;;;;;;;;;20.43;100.00;98995.69;1668902;85;20089;-75
2022/08/02 08:30:46;;;;;;;;;;;;;;;20.49;100.00;98991.11;1671760;85;21188;-75
2022/08/02 08:33:18;;;;;;;;;;;;;;;20.52;100.00;98991.12;1652604;85;20124;-74
2022/08/02 08:35:52;;;;;;;;;;;;;;;20.49;100.00;98994.70;1672215;85;20163;-75
2022/08/02 08:38:23;;;;;;;;;;;;;;;20.46;100.00;98998.27;1671789;85;20112;-74
2022/08/02 08:40:54;;;;;;;;;;;;;;;20.48;100.00;98998.68;1652121;86;20089;-74
2022/08/02 08:43:24;;;;;;;;;;;;;;;20.53;100.00;99004.47;1671483;85;21775;-74
2022/08/02 08:45:50;;;;;;;;;;;;;;;20.60;100.00;99001.69;1677301;84;20168;-75
2022/08/02 08:48:21;;;;;;;;;;;;;;;20.70;100.00;99003.70;1664400;85;20459;-73
2022/08/02 08:50:55;;;;;;;;;;;;;;;20.78;100.00;99001.13;1671628;85;20124;-73
2022/08/02 08:53:29;;;;;;;;;;;;;;;20.84;100.00;99003.69;1653134;86;20157;-74
2022/08/02 08:56:01;;;;;;;;;;;;;;;20.87;100.00;99007.08;1672728;85;20104;-75
2022/08/02 08:58:27;;;;;;;;;;;;;;;20.95;100.00;99008.67;1671620;85;20101;-76
2022/08/02 09:00:58;;;;;;;;;;;;;;;20.95;100.00;99007.28;1673360;86;20121;-74
2022/08/02 09:03:26;;;;;;;;;;;;;;;20.94;100.00;99018.24;1673378;86;20100;-75
2022/08/02 09:05:56;;;;;;;;;;;;;;;20.88;100.00;99010.66;1667217;85;20176;-76
2022/08/02 09:08:23;;;;;;;;;;;;;;;20.82;100.00;99015.84;1654616;86;21987;-76
2022/08/02 09:11:00;;;;;;;;;;;;;;;20.72;100.00;99023.03;1672327;86;20450;-76
2022/08/02 09:13:36;;;;;;;;;;;;;;;20.64;100.00;99020.63;1672428;86;20172;-76
2022/08/02 09:18:37;;;;;;;;;;;;;;;20.58;100.00;99023.00;1666783;84;20121;-76
2022/08/02 09:21:12;;;;;;;;;;;;;;;20.55;100.00;99028.57;1701382;84;21155;-74
2022/08/02 09:23:40;;;;;;;;;;;;;;;20.56;100.00;99032.36;1701234;84;20074;-75
2022/08/02 09:26:11;;;;;;;;;;;;;;;20.63;100.00;99028.78;1679799;84;20465;-76
2022/08/02 09:28:40;;;;;;;;;;;;;;;20.70;100.00;99041.35;1701290;84;20810;-76
2022/08/02 09:31:08;;;;;;;;;;;;;;;20.81;100.00;99037.95;1701492;84;20441;-75
2022/08/02 09:33:43;;;;;;;;;;;;;;;20.89;100.00;99042.95;1680195;84;20126;-75
2022/08/02 09:36:11;;;;;;;;;;;;;;;20.90;100.00;99038.37;1700583;84;20090;-76
2022/08/02 09:38:55;;;;;;;;;;;;;;;20.94;100.00;99040.56;1692122;84;20185;-77
2022/08/02 09:41:31;;;;;;;;;;;;;;;20.97;100.00;99045.95;1678534;84;20500;-77
2022/08/02 09:44:01;;;;;;;;;;;;;;;21.02;100.00;99040.77;1697711;83;20131;-75
2022/08/02 09:46:32;;;;;;;;;;;;;;;21.07;100.00;99038.98;1685848;83;21167;-76
2022/08/02 09:49:07;;;;;;;;;;;;;;;21.13;100.00;99041.37;1677082;84;20152;-74
2022/08/02 09:51:35;;;;;;;;;;;;;;;21.11;100.00;99045.95;1677502;84;20151;-74
2022/08/02 09:54:05;;;;;;;;;;;;;;;21.09;100.00;99046.36;1689868;83;20111;-76
2022/08/02 09:56:52;;;;;;;;;;;;;;;21.08;100.00;99039.18;1652042;86;20104;-76
2022/08/02 09:59:20;;;;;;;;;;;;;;;21.05;100.00;99044.76;1639147;86;20650;-74
2022/08/02 10:01:50;;;;;;;;;;;;;;;21.09;100.00;99043.56;1672091;85;20444;-74
2022/08/02 10:04:21;;;;;;;;;;;;;;;21.16;100.00;99041.37;1673231;85;20120;-74
2022/08/02 10:06:54;;;;;;;;;;;;;;;21.29;100.00;99042.60;1673317;86;20124;-76
2022/08/02 10:09:27;;;;;;;;;;;;;;;21.44;100.00;99047.55;1673135;85;20100;-76
2022/08/02 10:11:57;;;;;;;;;;;;;;;21.57;100.00;99041.75;1666983;85;21154;-77
2022/08/02 10:14:31;;;;;;;;;;;;;;;21.62;100.00;99032.97;1672872;86;20431;-76
2022/08/02 10:17:03;;;;;;;;;;;;;;;21.69;100.00;99041.93;1656603;84;20118;-77
2022/08/02 10:19:33;;;;;;;;;;;;;;;21.83;100.00;99036.91;1689249;84;20121;-77
2022/08/02 10:22:07;;;;;;;;;;;;;;;21.93;100.00;99031.89;1683938;84;20095;-76
2022/08/02 10:24:40;;;;;;;;;;;;;;;21.97;100.00;99031.25;1691563;83;21181;-76
2022/08/02 10:27:23;;;;;;;;;;;;;;;22.06;100.00;99034.44;1691508;84;20128;-76
2022/08/02 10:29:50;;;;;;;;;;;;;;;22.10;100.00;99036.62;1669793;84;20085;-76
2022/08/02 10:32:26;;;;;;;;;;;;;;;22.00;100.00;99040.22;1673666;86;20113;-74
2022/08/02 10:35:00;;;;;;;;;;;;;;;21.88;100.00;99034.50;1653917;84;20431;-76
2022/08/02 10:37:32;;;;;;;;;;;;;;;21.93;100.00;99029.09;1689020;84;21711;-75
2022/08/02 10:39:58;;;;;;;;;;;;;;;22.01;100.00;99034.27;1673033;85;20096;-75
2022/08/02 10:42:54;;;;;;;;;;;;;;;22.05;100.00;99032.85;1673269;86;20088;-75
2022/08/02 10:45:26;;;;;;;;;;;;;;;22.05;100.00;99039.23;1647534;86;20143;-75
2022/08/02 10:48:04;;;;;;;;;;;;;;;22.05;100.00;99034.25;1685474;84;20114;-76
2022/08/02 10:50:51;;;;;;;;;;;;;;;21.93;99.92;99030.50;1654448;85;21158;-75
2022/08/02 10:53:27;;;;;;;;;;;;;;;21.84;100.00;99034.31;1673506;86;20096;-75
2022/08/02 10:55:57;;;;;;;;;;;;;;;21.81;100.00;99032.33;1640510;87;20107;-75
2022/08/02 10:58:31;;;;;;;;;;;;;;;21.89;100.00;99031.11;1670925;86;20124;-76
2022/08/02 11:01:04;;;;;;;;;;;;;;;21.97;100.00;99031.25;1672430;85;20161;-75
2022/08/02 11:03:38;;;;;;;;;;;;;;;21.95;100.00;99030.89;1673369;85;21168;-75
2022/08/02 11:06:07;;;;;;;;;;;;;;;21.90;100.00;99032.70;1653623;86;20467;-75
2022/08/02 11:08:37;;;;;;;;;;;;;;;21.88;100.00;99031.70;1672613;85;20108;-75
2022/08/02 11:11:16;;;;;;;;;;;;;;;21.81;100.00;99028.93;1672626;85;20634;-76
2022/08/02 11:14:02;;;;;;;;;;;;;;;21.68;100.00;99038.34;1672702;85;20157;-74
2022/08/02 11:16:57;;;;;;;;;;;;;;;21.60;100.00;99035.36;1674422;84;21191;-82
2022/08/02 11:19:25;;;;;;;;;;;;;;;21.62;100.00;99032.16;1667541;84;20076;-77
2022/08/02 11:22:17;;;;;;;;;;;;;;;21.70;100.00;99024.77;1694644;84;20098;-76
2022/08/02 11:24:40;;;;;;;;;;;;;;;21.75;100.00;99033.34;1689731;84;20998;-76
2022/08/02 11:27:11;;;;;;;;;;;;;;;21.83;100.00;99032.72;1676039;83;20096;-77
2022/08/02 11:29:40;;;;;;;;;;;;;;;21.95;100.00;99031.66;1685083;84;21140;-76
2022/08/02 11:32:18;;;;;;;;;;;;;;;22.03;100.00;99029.06;1685541;84;20124;-77
2022/08/02 11:34:52;;;;;;;;;;;;;;;22.07;100.00;99033.24;1688599;84;20480;-76
2022/08/02 11:37:31;;;;;;;;;;;;;;;22.10;100.00;99026.84;1658274;84;20468;-76
2022/08/02 11:40:13;;;;;;;;;;;;;;;22.11;99.66;99029.83;1700224;84;20480;-76
2022/08/02 11:42:40;;;;;;;;;;;;;;;22.00;98.70;99031.84;1700997;84;21104;-76
2022/08/02 11:45:08;;;;;;;;;;;;;;;21.88;100.00;99026.72;1677332;83;20443;-77
2022/08/02 11:47:46;;;;;;;;;;;;;;;21.75;100.00;99027.15;1675372;84;20451;-77
2022/08/02 11:50:16;;;;;;;;;;;;;;;21.65;100.00;99038.34;1662982;85;20104;-79
2022/08/02 11:52:54;;;;;;;;;;;;;;;21.51;100.00;99033.58;1657648;85;20443;-78
2022/08/02 11:55:31;;;;;;;;;;;;;;;21.45;100.00;99034.39;1665318;85;20455;-77
2022/08/02 11:58:03;;;;;;;;;;;;;;;21.47;100.00;99038.38;1673446;84;20439;-77
2022/08/02 12:00:33;;;;;;;;;;;;;;;21.47;100.00;99033.39;1699304;84;20167;-76
2022/08/02 12:03:04;;;;;;;;;;;;;;;21.47;100.00;99032.78;1659711;84;20998;-78
2022/08/02 12:05:36;;;;;;;;;;;;;;;21.48;100.00;99041.36;1701040;84;20086;-77
2022/08/02 12:08:08;;;;;;;;;;;;;;;21.43;100.00;99044.56;1681250;84;20708;-77
2022/08/02 12:10:37;;;;;;;;;;;;;;;21.38;100.00;99040.77;1701771;84;20102;-78
2022/08/02 12:13:05;;;;;;;;;;;;;;;21.35;100.00;99045.79;1657835;84;20146;-78
2022/08/02 12:15:43;;;;;;;;;;;;;;;21.39;100.00;99045.95;1701463;84;20635;-76
2022/08/02 12:20:53;;;;;;;;;;;;;;;21.43;100.00;99038.97;1691195;84;21874;-78
2022/08/02 12:23:25;;;;;;;;;;;;;;;21.48;100.00;99043.36;1671881;85;20156;-79
2022/08/02 12:26:06;;;;;;;;;;;;;;;21.46;100.00;99039.56;1697724;84;20462;-79
2022/08/02 12:28:33;;;;;;;;;;;;;;;21.41;100.00;99044.16;1701422;84;20454;-78
2022/08/02 12:31:03;;;;;;;;;;;;;;;21.39;100.00;99042.37;1675810;84;20451;-79
2022/08/02 12:33:46;;;;;;;;;;;;;;;21.38;100.00;99037.98;1697920;84;21159;-80
2022/08/02 12:36:21;;;;;;;;;;;;;;;21.35;100.00;99036.02;1665679;85;20172;-79
2022/08/02 12:39:00;;;;;;;;;;;;;;;21.29;100.00;99032.83;1695219;84;20102;-79
2022/08/02 12:41:28;;;;;;;;;;;;;;;21.25;100.00;99034.03;1707959;82;20438;-83
2022/08/02 12:43:57;;;;;;;;;;;;;;;21.12;100.00;99038.38;1704301;83;20201;-83
2022/08/02 12:46:26;;;;;;;;;;;;;;;21.09;100.00;99042.17;1700966;84;21147;-82
2022/08/02 12:48:58;;;;;;;;;;;;;;;21.13;100.00;99042.77;1701418;84;20425;-87
2022/08/02 12:51:29;;;;;;;;;;;;;;;21.17;100.00;99044.36;1700754;84;20118;-77
2022/08/02 12:54:19;;;;;;;;;;;;;;;21.20;100.00;99044.97;1679167;84;20425;-75
2022/08/02 12:56:50;;;;;;;;;;;;;;;21.23;100.00;99044.80;1701370;84;20121;-77
2022/08/02 12:59:16;;;;;;;;;;;;;;;21.22;100.00;99037.62;1700857;84;21625;-79
2022/08/02 13:01:47;;;;;;;;;;;;;;;21.23;100.00;99039.21;1700645;84;20114;-74
2022/08/02 13:04:15;;;;;;;;;;;;;;;21.23;100.00;99042.80;1682251;84;20480;-78
2022/08/02 13:06:48;;;;;;;;;;;;;;;21.26;100.00;99039.21;1680902;84;20074;-80
2022/08/02 13:09:21;;;;;;;;;;;;;;;21.34;100.00;99033.03;1671410;84;20452;-73
2022/08/02 13:11:51;;;;;;;;;;;;;;;21.40;100.00;99032.80;1693184;84;21719;-74